Time;durP1;ratioP1;P1;durP2;ratioP2;P2;SDS_P1;SDS_P2;PMS_P1;PMS_P2;Temp;Humidity;BMP_temperature;BMP_pressure;BME280_temperature;BME280_humidity;BME280_pressure;Samples;Min_cycle;Max_cycle;Signal;HPM_P1;HPM_P2
2020/12/07 00:02:22;;;;;;;6.63;5.05;;;15.50;66.90;;;;;;10488895;28;20120;-58
2020/12/07 00:07:26;;;;;;;7.47;5.72;;;15.50;66.90;;;;;;10470952;28;20029;-57
2020/12/07 00:12:28;;;;;;;7.47;4.88;;;15.50;67.00;;;;;;10472533;28;20029;-57
2020/12/07 00:17:28;;;;;;;7.28;4.78;;;15.50;67.00;;;;;;10475546;28;20036;-57
2020/12/07 00:22:31;;;;;;;5.70;4.45;;;15.40;67.00;;;;;;10466572;28;20495;-57
2020/12/07 00:27:33;;;;;;;7.80;4.90;;;15.40;67.00;;;;;;10489645;28;20024;-57
2020/12/07 00:32:34;;;;;;;5.97;4.88;;;15.40;67.00;;;;;;10481875;28;20066;-57
2020/12/07 00:37:35;;;;;;;6.03;5.07;;;15.40;67.00;;;;;;10476255;28;20507;-57
2020/12/07 00:42:36;;;;;;;5.95;4.93;;;15.40;66.90;;;;;;10468800;28;20020;-57
2020/12/07 00:47:36;;;;;;;6.80;4.50;;;15.40;67.00;;;;;;10463857;28;20028;-57
2020/12/07 00:52:37;;;;;;;7.22;5.30;;;15.30;66.90;;;;;;10455864;28;20425;-57
2020/12/07 00:57:38;;;;;;;6.75;5.07;;;15.30;66.90;;;;;;10491681;28;20027;-57
2020/12/07 01:02:39;;;;;;;6.63;4.82;;;15.30;67.00;;;;;;10475394;28;20115;-57
2020/12/07 01:07:39;;;;;;;6.40;4.90;;;15.30;66.90;;;;;;10480488;28;20108;-57
2020/12/07 01:12:40;;;;;;;7.03;5.10;;;15.30;67.00;;;;;;10460202;28;20065;-57
2020/12/07 01:17:41;;;;;;;6.35;4.70;;;15.20;67.00;;;;;;10472517;28;20079;-57
2020/12/07 01:22:41;;;;;;;7.00;4.65;;;15.30;67.00;;;;;;10505080;28;20127;-57
2020/12/07 01:27:42;;;;;;;7.65;4.88;;;15.20;67.00;;;;;;10486890;28;20036;-57
2020/12/07 01:32:43;;;;;;;5.88;4.32;;;15.20;67.00;;;;;;10480812;28;20110;-57
2020/12/07 01:37:43;;;;;;;5.97;4.55;;;15.20;67.00;;;;;;10473078;28;20090;-57
2020/12/07 01:42:44;;;;;;;6.63;4.65;;;15.20;67.60;;;;;;10464793;28;20036;-57
2020/12/07 01:47:45;;;;;;;6.07;4.65;;;15.20;67.00;;;;;;10475398;28;20099;-57
2020/12/07 01:52:46;;;;;;;5.72;4.72;;;15.20;67.00;;;;;;10468269;28;20116;-56
2020/12/07 01:57:46;;;;;;;5.80;4.57;;;15.20;66.90;;;;;;10505025;28;20024;-58
2020/12/07 02:02:48;;;;;;;6.45;4.93;;;15.10;67.00;;;;;;10495579;28;20028;-57
2020/12/07 02:07:49;;;;;;;6.05;4.80;;;15.20;67.00;;;;;;10493334;28;20024;-57
2020/12/07 02:12:50;;;;;;;6.93;5.20;;;15.10;66.90;;;;;;10478051;28;20107;-58
2020/12/07 02:17:51;;;;;;;6.70;4.70;;;15.10;66.90;;;;;;10469792;28;20037;-57
2020/12/07 02:22:51;;;;;;;6.20;4.90;;;15.00;66.90;;;;;;10502507;28;20124;-57
2020/12/07 02:27:53;;;;;;;6.72;4.78;;;15.10;66.90;;;;;;10497374;28;20528;-57
2020/12/07 02:32:54;;;;;;;8.35;5.20;;;15.00;66.80;;;;;;10486057;28;20033;-57
2020/12/07 02:37:54;;;;;;;5.80;4.60;;;15.00;66.80;;;;;;10484746;28;20041;-57
2020/12/07 02:42:55;;;;;;;7.53;4.93;;;15.00;66.80;;;;;;10478402;28;20044;-57
2020/12/07 02:47:56;;;;;;;6.88;4.88;;;15.00;66.90;;;;;;10472237;28;20187;-57
2020/12/07 02:52:56;;;;;;;6.68;5.25;;;15.00;66.90;;;;;;10479995;28;20064;-58
2020/12/07 02:57:57;;;;;;;6.78;4.97;;;15.00;66.90;;;;;;10486869;28;20612;-58
2020/12/07 03:02:58;;;;;;;7.50;4.72;;;14.90;66.80;;;;;;10467176;28;20068;-58
2020/12/07 03:07:59;;;;;;;6.25;4.45;;;14.90;66.80;;;;;;10474402;28;20027;-57
2020/12/07 03:12:59;;;;;;;5.93;4.53;;;14.90;66.80;;;;;;10463490;28;20025;-57
2020/12/07 03:18:00;;;;;;;5.78;4.65;;;14.90;66.90;;;;;;10484318;28;20050;-57
2020/12/07 03:23:01;;;;;;;6.55;4.93;;;14.90;66.80;;;;;;10490966;28;20500;-57
2020/12/07 03:28:01;;;;;;;6.47;4.75;;;14.90;66.90;;;;;;10487971;28;20111;-57
2020/12/07 03:33:02;;;;;;;5.90;4.95;;;14.90;66.80;;;;;;10473902;28;20036;-58
2020/12/07 03:38:03;;;;;;;5.68;4.15;;;14.90;66.90;;;;;;10458257;28;20052;-57
2020/12/07 03:43:04;;;;;;;6.93;5.13;;;14.90;66.90;;;;;;10459097;28;20059;-58
2020/12/07 03:48:04;;;;;;;6.40;4.68;;;14.90;66.90;;;;;;10458083;28;20036;-58
2020/12/07 03:53:05;;;;;;;7.45;4.88;;;14.80;66.80;;;;;;10454908;28;20047;-57
2020/12/07 03:58:06;;;;;;;5.93;4.10;;;14.80;66.90;;;;;;10457783;28;20116;-57
2020/12/07 04:03:09;;;;;;;5.90;4.57;;;14.80;66.80;;;;;;10454817;28;20125;-57
2020/12/07 04:08:10;;;;;;;6.15;4.55;;;14.80;66.90;;;;;;10457167;28;20029;-57
2020/12/07 04:13:11;;;;;;;5.85;4.30;;;14.80;66.90;;;;;;10453814;28;20037;-57
2020/12/07 04:18:12;;;;;;;5.57;4.72;;;14.80;66.90;;;;;;10456808;28;20112;-58
2020/12/07 04:23:13;;;;;;;6.47;4.22;;;14.80;66.90;;;;;;10456685;28;20033;-57
2020/12/07 04:28:13;;;;;;;6.32;4.45;;;14.70;66.90;;;;;;10471955;28;20111;-57
2020/12/07 04:33:14;;;;;;;5.50;4.43;;;14.70;66.90;;;;;;10455947;28;20032;-57
2020/12/07 04:38:15;;;;;;;6.18;4.55;;;14.70;66.90;;;;;;10456319;28;20110;-57
2020/12/07 04:43:18;;;;;;;5.53;4.35;;;14.70;67.00;;;;;;10476078;28;20056;-58
2020/12/07 04:48:21;;;;;;;6.00;4.38;;;14.70;67.00;;;;;;10465163;28;20055;-57
2020/12/07 04:53:23;;;;;;;6.90;4.68;;;14.70;66.90;;;;;;10446277;28;20029;-58
2020/12/07 04:58:26;;;;;;;6.18;4.25;;;14.70;66.90;;;;;;10455511;28;20025;-57
2020/12/07 05:03:26;;;;;;;5.80;4.07;;;14.70;67.00;;;;;;10454197;28;20033;-56
2020/12/07 05:08:27;;;;;;;5.15;4.35;;;14.70;67.00;;;;;;10454809;28;20105;-58
2020/12/07 05:13:36;;;;;;;6.82;4.03;;;14.70;67.00;;;;;;10454336;28;20489;-57
2020/12/07 05:18:39;;;;;;;5.27;4.63;;;14.70;67.00;;;;;;10454306;28;20055;-57
2020/12/07 05:23:42;;;;;;;5.45;4.35;;;14.60;66.90;;;;;;10447852;28;20021;-57
2020/12/07 05:28:48;;;;;;;6.13;4.50;;;14.60;66.90;;;;;;10454939;28;20057;-57
2020/12/07 05:33:49;;;;;;;5.88;4.82;;;14.60;66.90;;;;;;10450355;28;20476;-57
2020/12/07 05:38:50;;;;;;;5.97;4.40;;;14.60;66.90;;;;;;10454048;28;20587;-57
2020/12/07 05:43:53;;;;;;;5.70;4.40;;;14.60;66.90;;;;;;10436624;28;20095;-57
2020/12/07 05:48:55;;;;;;;5.43;4.40;;;14.60;66.90;;;;;;10452359;28;20051;-56
2020/12/07 05:53:57;;;;;;;4.97;4.07;;;14.60;67.00;;;;;;10458290;28;20045;-56
2020/12/07 05:59:15;;;;;;;4.70;3.97;;;14.60;67.00;;;;;;10456895;28;20479;-58
2020/12/07 06:04:19;;;;;;;5.75;4.07;;;14.50;67.00;;;;;;10439414;28;20042;-57
2020/12/07 06:09:25;;;;;;;5.70;4.32;;;14.50;67.10;;;;;;10465093;28;20116;-58
2020/12/07 06:14:26;;;;;;;5.63;4.40;;;14.50;67.00;;;;;;10458445;28;20100;-57
2020/12/07 06:19:32;;;;;;;5.65;4.47;;;14.50;66.90;;;;;;10453228;28;20025;-57
2020/12/07 06:24:41;;;;;;;6.45;4.95;;;14.50;66.90;;;;;;10475538;28;20029;-56
2020/12/07 06:30:00;;;;;;;5.28;4.45;;;14.50;66.90;;;;;;10464488;28;20385;-55
2020/12/07 06:35:08;;;;;;;4.80;3.63;;;14.50;67.00;;;;;;10463283;28;20036;-55
2020/12/07 06:40:10;;;;;;;11.23;4.40;;;14.60;66.90;;;;;;10450314;28;20048;-58
2020/12/07 06:45:31;;;;;;;8.63;4.35;;;14.90;67.20;;;;;;10461320;28;20536;-57
2020/12/07 06:50:40;;;;;;;7.28;3.75;;;15.10;66.50;;;;;;10461351;28;20035;-56
2020/12/07 06:55:45;;;;;;;8.05;4.65;;;15.60;65.70;;;;;;10464195;28;20046;-56
2020/12/07 07:00:48;;;;;;;4.38;3.17;;;16.00;64.30;;;;;;10473120;28;20025;-56
2020/12/07 07:05:51;;;;;;;9.25;3.53;;;16.30;63.40;;;;;;10467508;28;20033;-56
2020/12/07 07:11:03;;;;;;;7.50;3.95;;;16.70;62.20;;;;;;10463760;28;20037;-58
2020/12/07 07:16:06;;;;;;;9.88;3.72;;;16.80;62.10;;;;;;10442752;28;20022;-56
2020/12/07 07:21:08;;;;;;;8.18;3.10;;;17.00;61.70;;;;;;10463332;28;20064;-56
2020/12/07 07:26:33;;;;;;;5.00;2.65;;;17.10;61.20;;;;;;10462914;28;20025;-56
2020/12/07 07:31:34;;;;;;;6.30;2.72;;;17.20;60.70;;;;;;10462398;28;20060;-56
2020/12/07 07:36:37;;;;;;;4.03;3.00;;;17.30;60.50;;;;;;10462209;28;20033;-56
2020/12/07 07:41:39;;;;;;;3.38;2.53;;;17.40;60.30;;;;;;10481222;28;20527;-56
2020/12/07 07:46:43;;;;;;;4.28;2.47;;;17.50;59.80;;;;;;10457841;28;20067;-56
2020/12/07 08:18:35;;;;;;;7.25;2.97;;;18.30;60.30;;;;;;10457773;28;20068;-57
2020/12/07 08:23:36;;;;;;;8.90;3.05;;;18.20;60.70;;;;;;10441693;28;20052;-57
2020/12/07 08:28:41;;;;;;;6.40;2.70;;;18.20;61.20;;;;;;10451627;28;20071;-56
2020/12/07 08:34:06;;;;;;;4.07;2.28;;;18.10;61.50;;;;;;10481077;28;20016;-56
2020/12/07 08:39:08;;;;;;;3.80;1.92;;;18.00;61.70;;;;;;10461960;28;20052;-55
2020/12/07 08:44:10;;;;;;;6.65;2.38;;;17.90;62.20;;;;;;10432004;28;20033;-56
2020/12/07 08:49:11;;;;;;;4.25;2.35;;;17.90;62.20;;;;;;10425145;28;20028;-57
2020/12/07 08:54:14;;;;;;;4.18;1.80;;;17.80;62.50;;;;;;10468560;28;20027;-56
2020/12/07 08:59:15;;;;;;;5.47;2.50;;;17.80;62.60;;;;;;10456692;28;20485;-56
2020/12/07 09:04:16;;;;;;;5.07;2.42;;;17.80;62.80;;;;;;10429293;28;20033;-56
2020/12/07 09:09:17;;;;;;;11.95;2.40;;;17.80;62.90;;;;;;10429448;28;20104;-57
2020/12/07 09:14:17;;;;;;;4.68;2.28;;;17.70;63.00;;;;;;10434320;28;20494;-56
2020/12/07 09:19:18;;;;;;;5.93;2.30;;;17.60;63.00;;;;;;10435663;28;20033;-57
2020/12/07 09:24:19;;;;;;;7.78;2.85;;;17.60;63.20;;;;;;10428576;28;20101;-57
2020/12/07 09:29:20;;;;;;;5.95;2.30;;;17.60;63.10;;;;;;10423935;28;20021;-56
2020/12/07 09:34:20;;;;;;;6.53;2.70;;;17.70;63.00;;;;;;10419249;28;20108;-56
2020/12/07 09:39:21;;;;;;;6.13;2.17;;;17.70;62.90;;;;;;10434468;28;20057;-57
2020/12/07 09:44:22;;;;;;;4.95;2.38;;;17.70;63.00;;;;;;10425810;28;20121;-56
2020/12/07 09:49:22;;;;;;;5.93;2.50;;;17.70;63.00;;;;;;10426435;28;20033;-57
2020/12/07 09:54:23;;;;;;;5.80;2.70;;;17.70;63.10;;;;;;10455313;28;20111;-57
2020/12/07 09:59:24;;;;;;;6.57;2.92;;;17.60;63.00;;;;;;10479869;28;20029;-58
2020/12/07 10:04:25;;;;;;;6.88;3.15;;;17.60;63.00;;;;;;10464790;28;20031;-57
2020/12/07 10:09:25;;;;;;;6.22;2.92;;;17.50;63.50;;;;;;10472496;28;20103;-57
2020/12/07 10:14:26;;;;;;;4.93;2.42;;;17.50;62.90;;;;;;10467604;28;20458;-57
2020/12/07 10:19:27;;;;;;;4.75;2.47;;;17.60;62.80;;;;;;10467523;28;20029;-58
2020/12/07 10:24:28;;;;;;;5.15;2.83;;;17.60;62.60;;;;;;10454838;28;20439;-58
2020/12/07 10:29:29;;;;;;;3.97;2.10;;;17.60;62.60;;;;;;10464211;28;20159;-57
2020/12/07 10:34:30;;;;;;;4.35;2.65;;;17.60;62.50;;;;;;10454697;28;20029;-57
2020/12/07 10:39:31;;;;;;;6.50;3.42;;;17.60;62.50;;;;;;10465514;28;20155;-57
2020/12/07 10:44:31;;;;;;;4.75;3.05;;;17.50;62.70;;;;;;10462852;28;20029;-56
2020/12/07 10:49:32;;;;;;;11.77;3.55;;;17.60;62.60;;;;;;10468318;28;20409;-56
2020/12/07 10:54:33;;;;;;;10.10;3.45;;;17.60;62.70;;;;;;10479501;28;20036;-56
2020/12/07 10:59:33;;;;;;;6.45;3.28;;;17.50;63.20;;;;;;10479266;28;20052;-58
2020/12/07 11:04:34;;;;;;;9.85;3.65;;;17.50;63.70;;;;;;10469130;28;20163;-56
2020/12/07 11:09:36;;;;;;;8.35;3.80;;;17.50;63.70;;;;;;10471968;28;20505;-56
2020/12/07 11:14:36;;;;;;;6.75;3.65;;;17.50;63.60;;;;;;10466043;28;20032;-56
2020/12/07 11:19:37;;;;;;;7.40;3.60;;;17.50;63.20;;;;;;10469111;28;20112;-56
2020/12/07 11:24:39;;;;;;;8.45;3.63;;;17.50;63.30;;;;;;10485324;28;20028;-56
2020/12/07 11:29:39;;;;;;;9.23;3.55;;;17.60;62.90;;;;;;10485488;28;20025;-56
2020/12/07 11:34:40;;;;;;;13.05;4.30;;;17.60;62.90;;;;;;10483532;28;20059;-57
2020/12/07 11:39:48;;;;;;;7.55;3.80;;;17.60;63.10;;;;;;10459438;28;20075;-56
2020/12/07 11:44:49;;;;;;;9.10;4.63;;;17.60;63.10;;;;;;10465190;28;20029;-56
2020/12/07 11:49:50;;;;;;;6.80;3.50;;;17.50;63.30;;;;;;10458777;28;20103;-56
2020/12/07 11:54:51;;;;;;;8.13;4.30;;;17.60;63.00;;;;;;10458530;28;20087;-56
2020/12/07 11:59:52;;;;;;;7.78;4.25;;;17.60;62.90;;;;;;10458566;28;20122;-56
2020/12/07 12:04:52;;;;;;;6.45;4.05;;;17.60;62.90;;;;;;10473630;28;20029;-56
2020/12/07 12:09:53;;;;;;;7.10;3.83;;;17.60;62.90;;;;;;10457991;28;20056;-56
2020/12/07 12:14:54;;;;;;;8.65;4.15;;;17.60;63.20;;;;;;10457404;28;20111;-58
2020/12/07 12:19:55;;;;;;;8.50;4.22;;;17.50;63.40;;;;;;10473784;28;20091;-57
2020/12/07 12:24:56;;;;;;;10.00;4.90;;;17.50;63.40;;;;;;10457653;28;20086;-56
2020/12/07 12:29:56;;;;;;;8.73;4.13;;;17.60;63.40;;;;;;10457720;28;20021;-57
2020/12/07 12:34:57;;;;;;;6.05;4.30;;;17.70;63.60;;;;;;10471647;28;20288;-59
2020/12/07 12:39:58;;;;;;;7.72;4.70;;;17.60;64.40;;;;;;10472732;28;20083;-57
2020/12/07 12:44:59;;;;;;;12.50;5.63;;;17.60;64.70;;;;;;10443016;28;20033;-56
2020/12/07 12:49:59;;;;;;;9.40;4.57;;;17.50;65.10;;;;;;10473864;28;20377;-56
2020/12/07 12:55:01;;;;;;;13.20;4.88;;;17.40;65.80;;;;;;10479499;28;20107;-56
2020/12/07 13:00:06;;;;;;;6.75;4.72;;;17.00;66.70;;;;;;10478639;28;20029;-55
2020/12/07 13:05:07;;;;;;;7.68;4.70;;;16.80;70.20;;;;;;10474789;28;20041;-56
2020/12/07 13:10:08;;;;;;;8.63;5.22;;;16.70;71.10;;;;;;10467652;28;20490;-56
2020/12/07 13:15:08;;;;;;;7.63;4.80;;;16.70;71.90;;;;;;10478237;28;20484;-55
2020/12/07 13:20:12;;;;;;;11.48;5.45;;;16.70;70.30;;;;;;10427813;28;20024;-56
2020/12/07 13:25:20;;;;;;;10.82;5.13;;;16.80;69.80;;;;;;10421258;28;20079;-56
2020/12/07 13:30:24;;;;;;;15.55;5.78;;;16.90;69.90;;;;;;10421120;28;20021;-57
2020/12/07 13:35:25;;;;;;;14.15;5.88;;;17.10;69.90;;;;;;10429429;28;20383;-56
2020/12/07 13:40:26;;;;;;;12.70;5.15;;;17.10;70.30;;;;;;10420862;28;20052;-56
2020/12/07 13:45:28;;;;;;;14.75;5.75;;;17.00;70.80;;;;;;10421091;28;20140;-54
2020/12/07 13:50:30;;;;;;;14.65;6.30;;;16.80;72.00;;;;;;10465216;28;20025;-56
2020/12/07 13:55:33;;;;;;;10.77;5.88;;;16.80;73.20;;;;;;10451632;28;20026;-57
2020/12/07 14:00:34;;;;;;;14.05;5.45;;;16.80;71.60;;;;;;10420485;28;20041;-57
2020/12/07 14:05:34;;;;;;;16.73;6.22;;;16.80;72.00;;;;;;10436922;28;20529;-57
2020/12/07 14:10:35;;;;;;;11.15;6.15;;;16.80;72.00;;;;;;10465455;28;20037;-57
2020/12/07 14:15:36;;;;;;;16.48;6.85;;;16.80;72.20;;;;;;10475831;28;20059;-57
2020/12/07 14:41:21;;;;;;;21.23;6.65;;;16.90;73.60;;;;;;10458147;28;20124;-59
2020/12/07 14:46:25;;;;;;;21.60;7.10;;;17.20;72.50;;;;;;10455016;28;20017;-58
2020/12/07 14:51:40;;;;;;;20.38;7.70;;;17.30;71.50;;;;;;10434986;28;20022;-58
2020/12/07 14:56:49;;;;;;;19.45;7.45;;;17.20;71.60;;;;;;10458910;28;20484;-61
2020/12/07 15:07:02;;;;;;;14.48;7.78;;;17.20;70.90;;;;;;10461429;28;20033;-57
2020/12/07 15:12:18;;;;;;;16.05;9.13;;;17.10;70.70;;;;;;10464661;28;20040;-58
2020/12/07 15:17:19;;;;;;;17.40;7.80;;;17.20;70.10;;;;;;10462963;28;20032;-56
2020/12/07 15:22:19;;;;;;;18.17;9.07;;;17.20;70.30;;;;;;10461492;28;20041;-59
2020/12/07 15:27:20;;;;;;;19.85;9.75;;;17.30;69.80;;;;;;10453071;28;20032;-58
2020/12/07 15:32:21;;;;;;;18.02;8.80;;;17.30;70.10;;;;;;10436095;28;20056;-59
2020/12/07 15:37:21;;;;;;;19.08;8.13;;;17.30;70.70;;;;;;10472959;28;20024;-59
2020/12/07 15:42:22;;;;;;;33.25;10.55;;;17.30;70.50;;;;;;10469779;28;20094;-59
2020/12/07 15:47:23;;;;;;;27.88;9.25;;;17.40;70.80;;;;;;10450725;28;20452;-60
2020/12/07 15:52:28;;;;;;;18.83;9.00;;;17.40;70.80;;;;;;10458489;28;20488;-60
2020/12/07 15:57:29;;;;;;;19.95;9.07;;;17.30;70.90;;;;;;10453088;28;20040;-59
2020/12/07 16:02:29;;;;;;;27.80;10.68;;;17.20;71.20;;;;;;10456490;28;20100;-59
2020/12/07 16:07:30;;;;;;;29.33;10.65;;;17.20;70.90;;;;;;10471311;28;20124;-59
2020/12/07 16:12:31;;;;;;;16.10;10.32;;;17.20;69.80;;;;;;10458207;28;20059;-58
2020/12/07 16:17:32;;;;;;;14.55;10.23;;;17.10;69.50;;;;;;10457090;28;20100;-60
2020/12/07 16:22:32;;;;;;;16.15;10.57;;;17.10;69.10;;;;;;10472475;28;20119;-60
2020/12/07 16:27:33;;;;;;;19.38;10.75;;;17.20;68.90;;;;;;10457476;28;20036;-59
2020/12/07 16:32:36;;;;;;;13.60;10.38;;;17.10;68.80;;;;;;10456196;28;20033;-59
2020/12/07 16:37:37;;;;;;;20.98;11.40;;;17.10;68.30;;;;;;10454468;28;20508;-61
2020/12/07 16:42:38;;;;;;;26.17;12.27;;;17.10;68.00;;;;;;10459156;28;20039;-62
